createdAt,value
2022-08-16T00:03:51.877Z,19
2022-08-16T00:08:56.402Z,18.9
2022-08-16T00:14:00.955Z,18.9
2022-08-16T00:19:04.493Z,19
2022-08-16T00:24:11.546Z,19
2022-08-16T00:29:15.692Z,18.9
2022-08-16T00:34:18.075Z,18.8
2022-08-16T00:39:21.672Z,18.5
2022-08-16T00:44:32.571Z,18.5
2022-08-16T00:49:30.716Z,18.4
2022-08-16T00:54:34.279Z,18.4
2022-08-16T00:59:37.836Z,18.3
2022-08-16T01:04:42.397Z,18.3
2022-08-16T01:09:46.939Z,18.3
2022-08-16T01:14:50.443Z,18.2
2022-08-16T01:19:57.167Z,18.1
2022-08-16T01:24:59.502Z,18.1
2022-08-16T01:30:04.059Z,18
2022-08-16T01:35:07.630Z,18
2022-08-16T01:40:12.109Z,18.1
2022-08-16T01:45:16.673Z,18.1
2022-08-16T01:50:43.087Z,18.1
2022-08-16T01:55:24.776Z,18.1
2022-08-16T02:00:29.948Z,18.1
2022-08-16T02:05:32.891Z,18.1
2022-08-16T02:10:37.342Z,18.1
2022-08-16T02:15:42.545Z,18.1
2022-08-16T02:20:45.640Z,18
2022-08-16T02:25:52.195Z,18
2022-08-16T02:30:54.555Z,17.9
2022-08-16T02:36:00.156Z,17.9
2022-08-16T02:41:02.590Z,18
2022-08-16T02:46:07.468Z,17.9
2022-08-16T02:51:11.856Z,17.9
2022-08-16T02:56:15.964Z,17.9
2022-08-16T03:01:24.722Z,17.8
2022-08-16T03:06:39.132Z,17.7
2022-08-16T03:11:27.845Z,17.7
2022-08-16T03:16:32.763Z,17.7
2022-08-16T03:21:37.832Z,17.6
2022-08-16T03:26:40.581Z,17.6
2022-08-16T03:31:44.968Z,17.4
2022-08-16T03:36:49.540Z,17.4
2022-08-16T03:42:00.018Z,17.4
2022-08-16T03:46:58.212Z,17.3
2022-08-16T03:52:02.115Z,17.3
2022-08-16T03:57:06.682Z,17.2
2022-08-16T04:02:12.571Z,17.2
2022-08-16T04:07:14.747Z,17.2
2022-08-16T04:12:54.282Z,17.2
2022-08-16T04:17:24.298Z,17.2
2022-08-16T04:22:27.909Z,17.2
2022-08-16T04:27:32.032Z,17.2
2022-08-16T04:32:36.265Z,17.2
2022-08-16T04:37:42.196Z,17.3
2022-08-16T04:42:44.507Z,17.2
2022-08-16T04:47:49.037Z,17.1
2022-08-16T04:52:52.578Z,17.1
2022-08-16T04:57:57.169Z,17.2
2022-08-16T05:03:02.923Z,17.2
2022-08-16T05:08:29.543Z,17.3
2022-08-16T05:13:08.900Z,17.3
2022-08-16T05:18:15.880Z,17.4
2022-08-16T05:23:17.866Z,17.4
2022-08-16T05:28:22.394Z,17.5
2022-08-16T05:33:25.912Z,17.6
2022-08-16T05:38:32.996Z,17.7
2022-08-16T05:43:43.180Z,17.9
2022-08-16T05:48:38.556Z,18
2022-08-16T05:53:43.082Z,18.3
2022-08-16T05:58:47.666Z,18.4
2022-08-16T06:03:51.135Z,18.7
2022-08-16T06:08:55.680Z,18.7
2022-08-16T06:14:00.207Z,19.1
2022-08-16T06:19:04.971Z,19.2
2022-08-16T06:24:53.751Z,19.3
2022-08-16T06:29:12.863Z,19.9
2022-08-16T06:34:54.833Z,19.8
2022-08-16T06:39:20.916Z,19.8
2022-08-16T06:44:27.020Z,20
2022-08-16T06:49:30.006Z,20.2
2022-08-16T06:54:33.529Z,20.4
2022-08-16T06:59:48.531Z,20.7
2022-08-16T07:04:42.584Z,21
2022-08-16T07:09:46.163Z,21.3
2022-08-16T07:14:50.674Z,21.5
2022-08-16T07:20:03.531Z,22
2022-08-16T07:24:58.765Z,22.1
2022-08-16T07:30:04.574Z,22.6
2022-08-16T07:35:07.845Z,23.2
2022-08-16T07:40:12.907Z,22.6
2022-08-16T07:45:16.967Z,23.3
2022-08-16T07:50:57.449Z,23.4
2022-08-16T07:55:24.993Z,23.5
2022-08-16T08:00:28.580Z,23.6
2022-08-16T08:05:35.651Z,23.6
2022-08-16T08:10:37.620Z,24.7
2022-08-16T08:15:52.678Z,24.5
2022-08-16T08:20:45.737Z,26.2
2022-08-16T08:25:54.537Z,26.5
2022-08-16T08:31:01.182Z,24.9
2022-08-16T08:36:00.932Z,26
2022-08-16T08:41:02.920Z,27.4
2022-08-16T08:46:12.441Z,27.1
2022-08-16T08:51:11.137Z,26.7
2022-08-16T08:56:22.923Z,26.3
2022-08-16T09:01:31.887Z,26.1
2022-08-16T09:06:23.624Z,28
2022-08-16T09:11:40.659Z,27.3
2022-08-16T09:17:02.979Z,27.6
2022-08-16T09:21:36.262Z,26.6
2022-08-16T09:26:45.785Z,26.9
2022-08-16T09:31:45.009Z,27.9
2022-08-16T09:36:48.889Z,26.8
2022-08-16T09:41:54.217Z,27.4
2022-08-16T09:46:57.859Z,27.8
2022-08-16T09:52:01.476Z,27.8
2022-08-16T09:57:06.063Z,28.4
2022-08-16T10:02:26.084Z,27.7
2022-08-16T10:07:16.027Z,28.4
2022-08-16T10:12:19.737Z,29.4
2022-08-16T10:17:22.237Z,28.3
2022-08-16T10:22:26.746Z,29.6
2022-08-16T10:27:45.775Z,28.6
2022-08-16T10:32:35.810Z,30.6
2022-08-16T10:37:39.412Z,29.8
2022-08-16T10:42:43.973Z,28.5
2022-08-16T10:47:48.550Z,31
2022-08-16T10:52:56.895Z,32.4
2022-08-16T10:57:56.542Z,29.3
2022-08-16T11:03:01.513Z,29.5
2022-08-16T11:08:04.694Z,30
2022-08-16T11:19:03.644Z,30.6
2022-08-16T11:23:17.289Z,29.9
2022-08-16T11:29:12.620Z,30.5
2022-08-16T11:33:51.736Z,29.3
2022-08-16T11:38:51.610Z,31.5
2022-08-16T11:43:34.452Z,31.7
2022-08-16T11:48:39.026Z,30.6
2022-08-16T11:53:43.559Z,31.8
2022-08-16T11:58:51.599Z,34
2022-08-16T12:03:51.748Z,33.6
2022-08-16T12:08:56.162Z,32.5
2022-08-16T12:13:59.742Z,32.1
2022-08-16T12:19:04.644Z,31.2
2022-08-16T12:24:08.810Z,30.6
2022-08-16T12:29:13.376Z,32
2022-08-16T12:34:24.806Z,33.9
2022-08-16T12:39:21.446Z,29.7
2022-08-16T12:44:26.017Z,30.6
2022-08-16T12:49:29.565Z,31.6
2022-08-16T12:54:34.100Z,31.3
2022-08-16T12:59:38.682Z,31
2022-08-16T13:04:42.174Z,30.8
2022-08-16T13:09:46.708Z,30
2022-08-16T13:14:51.288Z,30
2022-08-16T13:20:11.127Z,31
2022-08-16T13:24:59.382Z,33.2
2022-08-16T13:30:21.833Z,34.6
2022-08-16T13:35:11.811Z,33.1
2022-08-16T13:40:19.705Z,32.2
2022-08-16T13:45:15.864Z,31.2
2022-08-16T13:50:31.365Z,31.1
2022-08-16T13:55:24.651Z,31.6
2022-08-16T14:00:28.218Z,30.9
2022-08-16T14:05:32.758Z,30.4
2022-08-16T14:10:37.290Z,30.5
2022-08-16T14:15:41.320Z,29.8
2022-08-16T14:20:48.876Z,29.8
2022-08-16T14:25:53.895Z,30.2
2022-08-16T14:30:54.456Z,30.8
2022-08-16T14:35:58.007Z,30.6
2022-08-16T14:41:02.546Z,32.1
2022-08-16T14:46:07.535Z,32.2
2022-08-16T14:51:10.628Z,34.8
2022-08-16T14:56:17.466Z,33.9
2022-08-16T15:01:19.747Z,31.5
2022-08-16T15:06:23.259Z,32.6
2022-08-16T15:11:27.830Z,32.2
2022-08-16T15:16:32.323Z,29.8
2022-08-16T15:21:35.920Z,29.7
2022-08-16T15:26:44.921Z,30
2022-08-16T15:31:44.979Z,29.3
2022-08-16T15:36:49.497Z,29.6
2022-08-16T15:41:53.021Z,29
2022-08-16T15:47:00.032Z,29
2022-08-16T15:52:03.102Z,29
2022-08-16T15:57:12.025Z,29.3
2022-08-16T16:02:10.169Z,29.7
2022-08-16T16:07:14.699Z,29.6
2022-08-16T16:12:50.268Z,29.3
2022-08-16T16:17:22.841Z,30.1
2022-08-16T16:22:27.402Z,31.7
2022-08-16T16:27:30.906Z,31.1
2022-08-16T16:32:35.422Z,29.1
2022-08-16T16:37:40.000Z,29.2
2022-08-16T16:42:44.681Z,29
2022-08-16T16:47:48.076Z,29.3
2022-08-16T16:52:52.630Z,29.5
2022-08-16T16:57:57.138Z,29.9
2022-08-16T17:03:00.732Z,30.5
2022-08-16T17:08:05.240Z,30.1
2022-08-16T17:13:09.751Z,29.8
2022-08-16T17:19:17.789Z,29.9
2022-08-16T17:23:17.826Z,28.9
2022-08-16T17:28:59.172Z,29.1
2022-08-16T17:33:25.919Z,28.6
2022-08-16T17:38:33.008Z,29.1
2022-08-16T17:43:35.007Z,28.8
2022-08-16T17:48:39.513Z,29.3
2022-08-16T17:53:47.111Z,29.5
2022-08-16T17:58:46.626Z,29.4
2022-08-16T18:04:06.936Z,29.3
2022-08-16T18:09:01.693Z,29.2
2022-08-16T18:13:59.269Z,29.1
2022-08-16T18:19:03.794Z,28.8
2022-08-16T18:24:08.316Z,28.5
2022-08-16T18:29:12.871Z,28.4
2022-08-16T18:34:16.397Z,28.2
2022-08-16T18:39:20.943Z,27.9
2022-08-16T18:44:29.254Z,27.7
2022-08-16T18:49:29.037Z,27.4
2022-08-16T18:54:33.562Z,27.3
2022-08-16T18:59:38.088Z,27.1
2022-08-16T19:04:56.455Z,26.9
2022-08-16T19:09:46.195Z,26.8
2022-08-16T19:14:50.721Z,26.6
2022-08-16T19:19:54.294Z,26.5
2022-08-16T19:24:58.787Z,26.4
2022-08-16T19:30:03.361Z,26.2
2022-08-16T19:35:07.853Z,25.9
2022-08-16T19:40:37.010Z,25.7
2022-08-16T19:45:15.939Z,25.5
2022-08-16T19:50:20.469Z,25.5
2022-08-16T19:55:24.065Z,25.4
2022-08-16T20:00:35.272Z,25.2
2022-08-16T20:05:33.114Z,25
2022-08-16T20:10:36.665Z,24.8
2022-08-16T20:15:41.194Z,24.5
2022-08-16T20:20:45.727Z,24.5
2022-08-16T20:25:49.771Z,24.3
2022-08-16T20:30:53.791Z,24.3
2022-08-16T20:35:58.349Z,24.3
2022-08-16T20:41:02.877Z,24.2
2022-08-16T20:46:06.406Z,24.2
2022-08-16T20:51:10.949Z,24.2
2022-08-16T20:56:15.526Z,24.3
2022-08-16T21:01:19.065Z,24.3
2022-08-16T21:06:23.685Z,24.2
2022-08-16T21:11:28.095Z,24
2022-08-16T21:16:31.677Z,24
2022-08-16T21:21:36.224Z,23.9
2022-08-16T21:26:40.721Z,23.9
2022-08-16T21:31:44.265Z,23.8
2022-08-16T21:36:48.835Z,23.6
2022-08-16T21:41:53.342Z,23.6
2022-08-16T21:46:57.865Z,23.5
2022-08-16T21:52:01.417Z,23.3
2022-08-16T21:57:10.563Z,23.2
2022-08-16T22:02:10.561Z,22.9
2022-08-16T22:07:14.048Z,22.7
2022-08-16T22:12:17.621Z,22.8
2022-08-16T22:17:22.123Z,22.8
2022-08-16T22:22:26.698Z,22.7
2022-08-16T22:27:31.223Z,22.7
2022-08-16T22:32:34.732Z,22.7
2022-08-16T22:37:39.289Z,22.5
2022-08-16T22:42:43.792Z,22.3
2022-08-16T22:47:47.376Z,22.3
2022-08-16T22:52:57.022Z,22.1
2022-08-16T22:57:56.422Z,22.1
2022-08-16T23:03:00.013Z,22.2
2022-08-16T23:08:04.517Z,22.2
2022-08-16T23:13:09.056Z,22.1
2022-08-16T23:18:12.619Z,22.2
2022-08-16T23:23:21.331Z,22.3
2022-08-16T23:28:21.666Z,22.4
2022-08-16T23:33:26.205Z,22.3
2022-08-16T23:38:38.399Z,22.2
2022-08-16T23:43:34.289Z,22.1
2022-08-16T23:49:57.984Z,22
2022-08-16T23:53:42.378Z,22
2022-08-16T23:58:46.881Z,22
